AEE872 LGAV-EPWA
Flight info
| Callsign | AEE872 |
|---|---|
| Flight time | 2h 21m |
| Altitude | 34000 |
| Route | KRO UT162 KOROS DCT ATFIR DCT RESLA DCT NARKA DCT PERIT DCT KOJOT DCT RAZEC DCT LENOV DCT ORTEB DCT KONZI DCT LOGDA |
| Aircraft | A321/M-SDE3FGHIRWY/LB1 |
Departure
| Time | 2026-05-05 10:54 |
|---|---|
| Airport | Athens Eleftherios Venizelos International Airport (LGAV) |
Arrival
| Time | 2026-05-05 13:15 |
|---|---|
| Airport | Warsaw Chopin Airport (EPWA) |
| Time | Latitude | Longitude | Altitude | Speed | Heading |
|---|---|---|---|---|---|
| 2026-05-05 10:17 | 37.94023 | 23.95290 | 302 ft | 0 kts | 39° |
| 2026-05-05 10:44 | 37.94012 | 23.95279 | 301 ft | 4 kts | 39° |
| 2026-05-05 10:44 | 37.93995 | 23.95262 | 302 ft | 4 kts | 38° |
| 2026-05-05 10:45 | 37.93975 | 23.95240 | 302 ft | 4 kts | 53° |
| 2026-05-05 10:45 | 37.93970 | 23.95219 | 303 ft | 3 kts | 126° |
| 2026-05-05 10:45 | 37.93983 | 23.95196 | 300 ft | 1 kts | 126° |
| 2026-05-05 10:47 | 37.93981 | 23.95198 | 300 ft | 2 kts | 126° |
| 2026-05-05 10:47 | 37.93959 | 23.95236 | 301 ft | 8 kts | 126° |
| 2026-05-05 10:47 | 37.93933 | 23.95282 | 301 ft | 10 kts | 127° |
| 2026-05-05 10:48 | 37.93917 | 23.95308 | 302 ft | 2 kts | 127° |
| 2026-05-05 10:48 | 37.93895 | 23.95346 | 300 ft | 9 kts | 127° |
| 2026-05-05 10:48 | 37.93833 | 23.95418 | 300 ft | 14 kts | 167° |
| 2026-05-05 10:48 | 37.93738 | 23.95361 | 300 ft | 17 kts | 215° |
| 2026-05-05 10:49 | 37.93625 | 23.95259 | 298 ft | 23 kts | 215° |
| 2026-05-05 10:49 | 37.93489 | 23.95130 | 299 ft | 24 kts | 217° |
| 2026-05-05 10:49 | 37.93354 | 23.95002 | 302 ft | 24 kts | 217° |
| 2026-05-05 10:49 | 37.93221 | 23.94876 | 302 ft | 24 kts | 216° |
| 2026-05-05 10:50 | 37.93090 | 23.94749 | 301 ft | 24 kts | 217° |
| 2026-05-05 10:50 | 37.92960 | 23.94626 | 301 ft | 23 kts | 217° |
| 2026-05-05 10:50 | 37.92834 | 23.94507 | 302 ft | 21 kts | 218° |
| 2026-05-05 10:50 | 37.92722 | 23.94395 | 303 ft | 19 kts | 218° |
| 2026-05-05 10:51 | 37.92617 | 23.94298 | 305 ft | 15 kts | 210° |
| 2026-05-05 10:51 | 37.92537 | 23.94325 | 308 ft | 8 kts | 129° |
| 2026-05-05 10:51 | 37.92534 | 23.94329 | 308 ft | 0 kts | 128° |
| 2026-05-05 10:51 | 37.92534 | 23.94330 | 305 ft | 1 kts | 128° |
| 2026-05-05 10:52 | 37.92507 | 23.94373 | 307 ft | 8 kts | 128° |
| 2026-05-05 10:52 | 37.92485 | 23.94425 | 309 ft | 5 kts | 77° |
| 2026-05-05 10:52 | 37.92502 | 23.94465 | 309 ft | 0 kts | 46° |
| 2026-05-05 10:52 | 37.92511 | 23.94475 | 307 ft | 5 kts | 40° |
| 2026-05-05 10:53 | 37.92704 | 23.94664 | 303 ft | 70 kts | 36° |
| 2026-05-05 10:53 | 37.93274 | 23.95199 | 294 ft | 132 kts | 36° |
| 2026-05-05 10:53 | 37.94142 | 23.96027 | 294 ft | 178 kts | 39° |
| 2026-05-05 10:53 | 37.95105 | 23.96959 | 897 ft | 174 kts | 39° |
| 2026-05-05 10:54 | 37.96083 | 23.97887 | 1602 ft | 173 kts | 35° |
| 2026-05-05 10:54 | 37.97045 | 23.98799 | 2088 ft | 182 kts | 34° |
| 2026-05-05 10:54 | 37.98108 | 23.99817 | 2333 ft | 200 kts | 35° |
| 2026-05-05 10:54 | 37.99270 | 24.00930 | 2586 ft | 218 kts | 34° |
| 2026-05-05 10:55 | 38.00539 | 24.02147 | 2778 ft | 242 kts | 35° |
| 2026-05-05 10:55 | 38.01888 | 24.03445 | 3323 ft | 246 kts | 35° |
| 2026-05-05 10:55 | 38.03254 | 24.04762 | 3980 ft | 248 kts | 35° |
| 2026-05-05 10:55 | 38.04631 | 24.06090 | 4657 ft | 249 kts | 34° |
| 2026-05-05 10:56 | 38.06015 | 24.07424 | 5335 ft | 250 kts | 34° |
| 2026-05-05 10:56 | 38.07402 | 24.08766 | 6018 ft | 251 kts | 36° |
| 2026-05-05 10:56 | 38.08567 | 24.10429 | 6685 ft | 257 kts | 58° |
| 2026-05-05 10:56 | 38.09122 | 24.12609 | 7237 ft | 269 kts | 80° |
| 2026-05-05 10:57 | 38.09380 | 24.15004 | 7644 ft | 276 kts | 68° |
| 2026-05-05 10:57 | 38.10406 | 24.16976 | 8177 ft | 269 kts | 35° |
| 2026-05-05 10:57 | 38.11987 | 24.18241 | 8804 ft | 269 kts | 28° |
| 2026-05-05 10:57 | 38.13620 | 24.19437 | 9473 ft | 271 kts | 28° |
| 2026-05-05 10:58 | 38.15242 | 24.20666 | 10147 ft | 273 kts | 30° |
| 2026-05-05 10:58 | 38.16888 | 24.21972 | 10428 ft | 288 kts | 31° |
| 2026-05-05 10:58 | 38.18616 | 24.23399 | 10553 ft | 307 kts | 32° |
| 2026-05-05 10:58 | 38.20442 | 24.24953 | 10675 ft | 324 kts | 32° |
| 2026-05-05 10:59 | 38.22356 | 24.26618 | 10806 ft | 341 kts | 33° |
| 2026-05-05 10:59 | 38.24349 | 24.28368 | 11018 ft | 353 kts | 33° |
| 2026-05-05 10:59 | 38.26383 | 24.30165 | 11454 ft | 359 kts | 33° |
| 2026-05-05 10:59 | 38.28444 | 24.31989 | 11929 ft | 362 kts | 33° |
| 2026-05-05 11:00 | 38.30504 | 24.33810 | 12387 ft | 366 kts | 33° |
| 2026-05-05 11:00 | 38.32610 | 24.35664 | 12855 ft | 369 kts | 32° |
| 2026-05-05 11:00 | 38.34733 | 24.37531 | 13330 ft | 372 kts | 32° |
| 2026-05-05 11:00 | 38.36873 | 24.39416 | 13819 ft | 376 kts | 32° |
| 2026-05-05 11:01 | 38.39033 | 24.41322 | 14251 ft | 379 kts | 32° |
| 2026-05-05 11:01 | 38.41209 | 24.43241 | 14676 ft | 382 kts | 32° |
| 2026-05-05 11:01 | 38.43404 | 24.45173 | 15098 ft | 385 kts | 32° |
| 2026-05-05 11:01 | 38.45617 | 24.47121 | 15508 ft | 388 kts | 31° |
| 2026-05-05 11:02 | 38.47844 | 24.49084 | 15916 ft | 391 kts | 31° |
| 2026-05-05 11:02 | 38.50086 | 24.51065 | 16335 ft | 393 kts | 31° |
| 2026-05-05 11:02 | 38.52341 | 24.53061 | 16744 ft | 396 kts | 31° |
| 2026-05-05 11:02 | 38.54610 | 24.55068 | 17140 ft | 398 kts | 31° |
| 2026-05-05 11:03 | 38.56897 | 24.57088 | 17530 ft | 401 kts | 31° |
| 2026-05-05 11:03 | 38.59198 | 24.59122 | 17911 ft | 404 kts | 31° |
| 2026-05-05 11:03 | 38.61504 | 24.61164 | 18287 ft | 406 kts | 31° |
| 2026-05-05 11:03 | 38.63835 | 24.63231 | 18621 ft | 409 kts | 31° |
| 2026-05-05 11:04 | 38.66099 | 24.65245 | 18963 ft | 411 kts | 31° |
| 2026-05-05 11:04 | 38.68446 | 24.67338 | 19356 ft | 411 kts | 31° |
| 2026-05-05 11:04 | 38.70757 | 24.69398 | 19723 ft | 412 kts | 31° |
| 2026-05-05 11:04 | 38.73150 | 24.71529 | 20082 ft | 414 kts | 31° |
| 2026-05-05 11:05 | 38.75517 | 24.73643 | 20419 ft | 416 kts | 31° |
| 2026-05-05 11:05 | 38.77893 | 24.75770 | 20777 ft | 417 kts | 31° |
| 2026-05-05 11:05 | 38.80279 | 24.77910 | 21113 ft | 419 kts | 31° |
| 2026-05-05 11:05 | 38.82677 | 24.80045 | 21445 ft | 420 kts | 29° |
| 2026-05-05 11:06 | 38.85221 | 24.81839 | 21777 ft | 417 kts | 20° |
| 2026-05-05 11:06 | 38.87944 | 24.83094 | 22113 ft | 415 kts | 13° |
| 2026-05-05 11:06 | 38.90722 | 24.84145 | 22430 ft | 417 kts | 13° |
| 2026-05-05 11:06 | 38.93469 | 24.85195 | 22743 ft | 419 kts | 13° |
| 2026-05-05 11:07 | 38.96273 | 24.86278 | 23061 ft | 421 kts | 13° |
| 2026-05-05 11:07 | 38.99082 | 24.87367 | 23381 ft | 423 kts | 13° |
| 2026-05-05 11:07 | 39.01822 | 24.88429 | 23677 ft | 424 kts | 13° |
| 2026-05-05 11:07 | 39.04634 | 24.89513 | 23985 ft | 424 kts | 12° |
| 2026-05-05 11:08 | 39.07514 | 24.90255 | 24280 ft | 421 kts | 3° |
| 2026-05-05 11:08 | 39.10429 | 24.90349 | 24558 ft | 419 kts | 354° |
| 2026-05-05 11:08 | 39.13301 | 24.89805 | 24821 ft | 418 kts | 345° |
| 2026-05-05 11:08 | 39.16064 | 24.88671 | 25086 ft | 418 kts | 339° |
| 2026-05-05 11:09 | 39.18795 | 24.87357 | 25346 ft | 419 kts | 339° |
| 2026-05-05 11:09 | 39.21529 | 24.86045 | 25603 ft | 420 kts | 339° |
| 2026-05-05 11:09 | 39.24271 | 24.84728 | 25852 ft | 421 kts | 339° |
| 2026-05-05 11:09 | 39.27019 | 24.83411 | 26093 ft | 422 kts | 339° |
| 2026-05-05 11:10 | 39.29767 | 24.82094 | 26320 ft | 423 kts | 339° |
| 2026-05-05 11:10 | 39.32530 | 24.80767 | 26536 ft | 423 kts | 339° |
| 2026-05-05 11:10 | 39.35292 | 24.79441 | 26741 ft | 424 kts | 339° |
| 2026-05-05 11:10 | 39.38068 | 24.78106 | 26982 ft | 424 kts | 339° |
| 2026-05-05 11:11 | 39.40820 | 24.76778 | 27269 ft | 423 kts | 339° |
| 2026-05-05 11:11 | 39.43562 | 24.75454 | 27548 ft | 421 kts | 339° |
| 2026-05-05 11:11 | 39.46306 | 24.74129 | 27842 ft | 420 kts | 339° |
| 2026-05-05 11:11 | 39.49039 | 24.72809 | 28154 ft | 419 kts | 339° |
| 2026-05-05 11:12 | 39.51765 | 24.71488 | 28450 ft | 418 kts | 339° |
| 2026-05-05 11:12 | 39.54485 | 24.70168 | 28736 ft | 416 kts | 339° |
| 2026-05-05 11:12 | 39.57192 | 24.68854 | 29028 ft | 415 kts | 339° |
| 2026-05-05 11:12 | 39.59891 | 24.67541 | 29321 ft | 414 kts | 339° |
| 2026-05-05 11:13 | 39.62583 | 24.66228 | 29616 ft | 413 kts | 339° |
| 2026-05-05 11:13 | 39.65266 | 24.64922 | 29903 ft | 411 kts | 339° |
| 2026-05-05 11:13 | 39.67944 | 24.63620 | 30182 ft | 410 kts | 339° |
| 2026-05-05 11:13 | 39.70617 | 24.62321 | 30423 ft | 409 kts | 339° |
| 2026-05-05 11:14 | 39.73285 | 24.61023 | 30627 ft | 409 kts | 339° |
| 2026-05-05 11:14 | 39.75949 | 24.59726 | 30825 ft | 409 kts | 339° |
| 2026-05-05 11:14 | 39.78614 | 24.58429 | 31037 ft | 409 kts | 339° |
| 2026-05-05 11:14 | 39.81275 | 24.57131 | 31233 ft | 408 kts | 339° |
| 2026-05-05 11:15 | 39.83933 | 24.55829 | 31441 ft | 408 kts | 338° |
| 2026-05-05 11:15 | 39.86556 | 24.54544 | 31638 ft | 408 kts | 338° |
| 2026-05-05 11:15 | 39.89211 | 24.53243 | 31838 ft | 408 kts | 338° |
| 2026-05-05 11:15 | 39.91864 | 24.51940 | 32035 ft | 408 kts | 338° |
| 2026-05-05 11:16 | 39.94514 | 24.50638 | 32240 ft | 407 kts | 338° |
| 2026-05-05 11:16 | 39.97170 | 24.49331 | 32433 ft | 407 kts | 338° |
| 2026-05-05 11:16 | 39.99818 | 24.48026 | 32622 ft | 407 kts | 338° |
| 2026-05-05 11:16 | 40.02469 | 24.46721 | 32814 ft | 407 kts | 338° |
| 2026-05-05 11:17 | 40.05117 | 24.45420 | 33008 ft | 406 kts | 338° |
| 2026-05-05 11:17 | 40.07762 | 24.44121 | 33197 ft | 406 kts | 338° |
| 2026-05-05 11:17 | 40.10405 | 24.42823 | 33387 ft | 406 kts | 338° |
| 2026-05-05 11:17 | 40.13046 | 24.41523 | 33578 ft | 406 kts | 338° |
| 2026-05-05 11:18 | 40.15688 | 24.40220 | 33754 ft | 405 kts | 338° |
| 2026-05-05 11:18 | 40.18325 | 24.38920 | 33939 ft | 405 kts | 338° |
| 2026-05-05 11:18 | 40.20957 | 24.37618 | 34053 ft | 406 kts | 338° |
| 2026-05-05 11:19 | 40.26265 | 24.34986 | 34083 ft | 408 kts | 338° |
| 2026-05-05 11:19 | 40.31580 | 24.32344 | 34081 ft | 408 kts | 338° |
| 2026-05-05 11:20 | 40.36857 | 24.29725 | 34084 ft | 408 kts | 338° |
| 2026-05-05 11:20 | 40.42177 | 24.27079 | 34083 ft | 409 kts | 338° |
| 2026-05-05 11:21 | 40.47499 | 24.24427 | 34080 ft | 410 kts | 338° |
| 2026-05-05 11:21 | 40.52823 | 24.21764 | 34095 ft | 410 kts | 338° |
| 2026-05-05 11:22 | 40.58162 | 24.19087 | 34093 ft | 410 kts | 338° |
| 2026-05-05 11:22 | 40.63489 | 24.16410 | 34102 ft | 411 kts | 338° |
| 2026-05-05 11:23 | 40.68835 | 24.13726 | 34093 ft | 411 kts | 338° |
| 2026-05-05 11:23 | 40.74177 | 24.11046 | 34087 ft | 412 kts | 338° |
| 2026-05-05 11:24 | 40.79525 | 24.08354 | 34089 ft | 412 kts | 338° |
| 2026-05-05 11:24 | 40.84883 | 24.05640 | 34075 ft | 412 kts | 338° |
| 2026-05-05 11:25 | 40.90243 | 24.02936 | 34080 ft | 413 kts | 338° |
| 2026-05-05 11:25 | 40.95617 | 24.00223 | 34075 ft | 413 kts | 338° |
| 2026-05-05 11:26 | 41.00991 | 23.97500 | 34078 ft | 413 kts | 338° |
| 2026-05-05 11:26 | 41.06360 | 23.94767 | 34070 ft | 413 kts | 338° |
| 2026-05-05 11:27 | 41.11732 | 23.92030 | 34061 ft | 414 kts | 338° |
| 2026-05-05 11:27 | 41.17108 | 23.89289 | 34063 ft | 414 kts | 338° |
| 2026-05-05 11:28 | 41.22487 | 23.86543 | 34061 ft | 414 kts | 338° |
| 2026-05-05 11:28 | 41.27860 | 23.83789 | 34058 ft | 414 kts | 338° |
| 2026-05-05 11:29 | 41.33240 | 23.81036 | 34071 ft | 414 kts | 338° |
| 2026-05-05 11:29 | 41.38613 | 23.78277 | 34074 ft | 414 kts | 339° |
| 2026-05-05 11:30 | 41.44220 | 23.76515 | 34053 ft | 416 kts | 348° |
| 2026-05-05 11:30 | 41.49888 | 23.75203 | 34062 ft | 416 kts | 348° |
| 2026-05-05 11:31 | 41.55598 | 23.73882 | 34076 ft | 416 kts | 348° |
| 2026-05-05 11:31 | 41.61302 | 23.72546 | 34081 ft | 416 kts | 348° |
| 2026-05-05 11:32 | 41.67002 | 23.71209 | 34083 ft | 416 kts | 348° |
| 2026-05-05 11:32 | 41.72691 | 23.69877 | 34093 ft | 416 kts | 348° |
| 2026-05-05 11:33 | 41.78394 | 23.68532 | 34090 ft | 416 kts | 348° |
| 2026-05-05 11:33 | 41.83125 | 23.67419 | 34099 ft | 415 kts | 348° |
| 2026-05-05 11:34 | 41.88815 | 23.66080 | 34099 ft | 415 kts | 348° |
| 2026-05-05 11:34 | 41.94511 | 23.64729 | 34108 ft | 415 kts | 348° |
| 2026-05-05 11:35 | 42.00207 | 23.63377 | 34094 ft | 416 kts | 348° |
| 2026-05-05 11:35 | 42.05907 | 23.62029 | 34096 ft | 416 kts | 349° |
| 2026-05-05 11:36 | 42.11595 | 23.60688 | 34097 ft | 415 kts | 348° |
| 2026-05-05 11:36 | 42.17299 | 23.59336 | 34104 ft | 416 kts | 349° |
| 2026-05-05 11:37 | 42.23005 | 23.57967 | 34105 ft | 417 kts | 349° |
| 2026-05-05 11:37 | 42.28720 | 23.56592 | 34099 ft | 417 kts | 349° |
| 2026-05-05 11:38 | 42.34435 | 23.55232 | 34110 ft | 417 kts | 349° |
| 2026-05-05 11:38 | 42.40154 | 23.53870 | 34102 ft | 417 kts | 349° |
| 2026-05-05 11:39 | 42.45872 | 23.52497 | 34107 ft | 417 kts | 349° |
| 2026-05-05 11:39 | 42.51593 | 23.51117 | 34114 ft | 417 kts | 349° |
| 2026-05-05 11:40 | 42.57314 | 23.49729 | 34101 ft | 418 kts | 349° |
| 2026-05-05 11:40 | 42.63029 | 23.48348 | 34084 ft | 418 kts | 348° |
| 2026-05-05 11:41 | 42.68708 | 23.46978 | 34096 ft | 418 kts | 348° |
| 2026-05-05 11:41 | 42.74415 | 23.45592 | 34111 ft | 418 kts | 349° |
| 2026-05-05 11:42 | 42.80137 | 23.44205 | 34101 ft | 417 kts | 349° |
| 2026-05-05 11:42 | 42.85855 | 23.42813 | 34097 ft | 417 kts | 349° |
| 2026-05-05 11:43 | 42.91547 | 23.41421 | 34095 ft | 417 kts | 349° |
| 2026-05-05 11:43 | 42.97273 | 23.40020 | 34081 ft | 417 kts | 349° |
| 2026-05-05 11:44 | 43.02991 | 23.38620 | 34086 ft | 418 kts | 349° |
| 2026-05-05 11:44 | 43.08713 | 23.37216 | 34089 ft | 418 kts | 349° |
| 2026-05-05 11:45 | 43.14442 | 23.35810 | 34091 ft | 418 kts | 349° |
| 2026-05-05 11:45 | 43.20174 | 23.34408 | 34087 ft | 418 kts | 349° |
| 2026-05-05 11:46 | 43.25907 | 23.33003 | 34084 ft | 419 kts | 349° |
| 2026-05-05 11:46 | 43.31638 | 23.31580 | 34075 ft | 419 kts | 349° |
| 2026-05-05 11:47 | 43.37298 | 23.29924 | 34081 ft | 419 kts | 346° |
| 2026-05-05 11:47 | 43.42927 | 23.27899 | 34073 ft | 419 kts | 345° |
| 2026-05-05 11:48 | 43.51388 | 23.24822 | 34072 ft | 419 kts | 345° |
| 2026-05-05 11:48 | 43.56922 | 23.22907 | 34070 ft | 419 kts | 346° |
| 2026-05-05 11:49 | 43.62575 | 23.20961 | 34068 ft | 420 kts | 346° |
| 2026-05-05 11:49 | 43.68240 | 23.18987 | 34046 ft | 420 kts | 345° |
| 2026-05-05 11:50 | 43.73906 | 23.16993 | 34060 ft | 420 kts | 345° |
| 2026-05-05 11:50 | 43.79573 | 23.15001 | 34056 ft | 421 kts | 345° |
| 2026-05-05 11:51 | 43.85243 | 23.13011 | 34046 ft | 421 kts | 345° |
| 2026-05-05 11:51 | 43.90924 | 23.11015 | 34063 ft | 421 kts | 345° |
| 2026-05-05 11:52 | 43.96611 | 23.09011 | 34044 ft | 422 kts | 345° |
| 2026-05-05 11:52 | 44.02301 | 23.07003 | 34044 ft | 422 kts | 345° |
| 2026-05-05 11:53 | 44.07972 | 23.04996 | 34049 ft | 423 kts | 345° |
| 2026-05-05 11:53 | 44.13643 | 23.02989 | 34049 ft | 423 kts | 345° |
| 2026-05-05 11:54 | 44.19328 | 23.00971 | 34048 ft | 423 kts | 345° |
| 2026-05-05 11:54 | 44.25042 | 22.98943 | 34056 ft | 424 kts | 345° |
| 2026-05-05 11:55 | 44.30746 | 22.96902 | 34037 ft | 424 kts | 345° |
| 2026-05-05 11:55 | 44.36471 | 22.94840 | 34040 ft | 425 kts | 345° |
| 2026-05-05 11:56 | 44.42202 | 22.92788 | 34043 ft | 425 kts | 345° |
| 2026-05-05 11:56 | 44.47930 | 22.90738 | 34050 ft | 425 kts | 345° |
| 2026-05-05 11:57 | 44.53663 | 22.88681 | 34050 ft | 425 kts | 345° |
| 2026-05-05 11:57 | 44.59390 | 22.86615 | 34051 ft | 425 kts | 345° |
| 2026-05-05 11:58 | 44.65118 | 22.84543 | 34058 ft | 425 kts | 345° |
| 2026-05-05 11:58 | 44.70852 | 22.82462 | 34054 ft | 426 kts | 345° |
| 2026-05-05 11:59 | 44.76593 | 22.80380 | 34055 ft | 426 kts | 345° |
| 2026-05-05 11:59 | 44.82333 | 22.78295 | 34058 ft | 426 kts | 345° |
| 2026-05-05 12:00 | 44.88077 | 22.76205 | 34064 ft | 426 kts | 345° |
| 2026-05-05 12:00 | 44.93824 | 22.74110 | 34070 ft | 427 kts | 345° |
| 2026-05-05 12:01 | 44.99570 | 22.72007 | 34060 ft | 427 kts | 345° |
| 2026-05-05 12:01 | 45.05282 | 22.69909 | 34060 ft | 427 kts | 345° |
| 2026-05-05 12:02 | 45.11043 | 22.67792 | 34064 ft | 428 kts | 345° |
| 2026-05-05 12:02 | 45.16810 | 22.65674 | 34065 ft | 428 kts | 346° |
| 2026-05-05 12:03 | 45.22568 | 22.63559 | 34066 ft | 428 kts | 345° |
| 2026-05-05 12:03 | 45.28340 | 22.61427 | 34070 ft | 429 kts | 345° |
| 2026-05-05 12:04 | 45.34112 | 22.59279 | 34064 ft | 429 kts | 345° |
| 2026-05-05 12:04 | 45.39861 | 22.57139 | 34060 ft | 429 kts | 345° |
| 2026-05-05 12:05 | 45.45647 | 22.54989 | 34060 ft | 430 kts | 345° |
| 2026-05-05 12:05 | 45.51434 | 22.52838 | 34059 ft | 430 kts | 345° |
| 2026-05-05 12:06 | 45.57223 | 22.50684 | 34060 ft | 430 kts | 345° |
| 2026-05-05 12:06 | 45.62925 | 22.48554 | 34058 ft | 430 kts | 345° |
| 2026-05-05 12:07 | 45.68721 | 22.46374 | 34041 ft | 431 kts | 345° |
| 2026-05-05 12:07 | 45.74481 | 22.44205 | 34039 ft | 431 kts | 345° |
| 2026-05-05 12:08 | 45.80284 | 22.42020 | 34050 ft | 431 kts | 345° |
| 2026-05-05 12:08 | 45.86092 | 22.39831 | 34050 ft | 432 kts | 345° |
| 2026-05-05 12:09 | 45.91900 | 22.37631 | 34052 ft | 432 kts | 345° |
| 2026-05-05 12:09 | 45.97704 | 22.35429 | 34046 ft | 432 kts | 345° |
| 2026-05-05 12:10 | 46.03515 | 22.33223 | 34047 ft | 432 kts | 345° |
| 2026-05-05 12:10 | 46.09325 | 22.31007 | 34022 ft | 433 kts | 345° |
| 2026-05-05 12:11 | 46.15148 | 22.28779 | 34031 ft | 433 kts | 345° |
| 2026-05-05 12:11 | 46.20977 | 22.26559 | 34043 ft | 433 kts | 345° |
| 2026-05-05 12:12 | 46.26805 | 22.24326 | 34044 ft | 433 kts | 345° |
| 2026-05-05 12:12 | 46.32632 | 22.22090 | 34045 ft | 433 kts | 345° |
| 2026-05-05 12:13 | 46.38462 | 22.19852 | 34029 ft | 434 kts | 345° |
| 2026-05-05 12:13 | 46.44297 | 22.17594 | 34027 ft | 434 kts | 345° |
| 2026-05-05 12:14 | 46.50066 | 22.15352 | 34036 ft | 435 kts | 345° |
| 2026-05-05 12:14 | 46.55913 | 22.13093 | 34037 ft | 435 kts | 345° |
| 2026-05-05 12:15 | 46.61768 | 22.10826 | 34036 ft | 436 kts | 345° |
| 2026-05-05 12:15 | 46.67587 | 22.08560 | 34041 ft | 436 kts | 345° |
| 2026-05-05 12:16 | 46.73444 | 22.06273 | 34039 ft | 436 kts | 345° |
| 2026-05-05 12:16 | 46.79347 | 22.03965 | 34004 ft | 437 kts | 344° |
| 2026-05-05 12:17 | 46.85188 | 22.01682 | 34014 ft | 438 kts | 344° |
| 2026-05-05 12:17 | 46.91082 | 21.99372 | 34014 ft | 439 kts | 344° |
| 2026-05-05 12:18 | 46.96973 | 21.97049 | 34020 ft | 439 kts | 344° |
| 2026-05-05 12:18 | 47.02873 | 21.94722 | 34021 ft | 439 kts | 344° |
| 2026-05-05 12:19 | 47.08770 | 21.92382 | 34025 ft | 439 kts | 344° |
| 2026-05-05 12:19 | 47.14665 | 21.90040 | 34031 ft | 439 kts | 344° |
| 2026-05-05 12:20 | 47.20569 | 21.87693 | 34024 ft | 440 kts | 344° |
| 2026-05-05 12:20 | 47.26478 | 21.85336 | 34024 ft | 440 kts | 343° |
| 2026-05-05 12:21 | 47.32356 | 21.82812 | 34024 ft | 440 kts | 342° |
| 2026-05-05 12:21 | 47.37227 | 21.80639 | 34026 ft | 440 kts | 342° |
| 2026-05-05 12:22 | 47.43089 | 21.78035 | 34031 ft | 440 kts | 342° |
| 2026-05-05 12:22 | 47.48964 | 21.75466 | 34021 ft | 440 kts | 342° |
| 2026-05-05 12:23 | 47.54835 | 21.72894 | 34005 ft | 441 kts | 342° |
| 2026-05-05 12:23 | 47.60720 | 21.70302 | 34008 ft | 441 kts | 342° |
| 2026-05-05 12:24 | 47.66571 | 21.67716 | 34026 ft | 442 kts | 342° |
| 2026-05-05 12:24 | 47.72500 | 21.65095 | 34023 ft | 442 kts | 342° |
| 2026-05-05 12:25 | 47.78350 | 21.62488 | 34020 ft | 442 kts | 342° |
| 2026-05-05 12:25 | 47.84263 | 21.60002 | 34030 ft | 442 kts | 343° |
| 2026-05-05 12:26 | 47.90227 | 21.57698 | 34000 ft | 443 kts | 344° |
| 2026-05-05 12:26 | 47.96201 | 21.55397 | 33997 ft | 444 kts | 343° |
| 2026-05-05 12:27 | 48.02174 | 21.53039 | 33996 ft | 445 kts | 343° |
| 2026-05-05 12:27 | 48.08140 | 21.50642 | 34004 ft | 446 kts | 343° |
| 2026-05-05 12:28 | 48.14134 | 21.48230 | 34005 ft | 446 kts | 343° |
| 2026-05-05 12:28 | 48.20118 | 21.45821 | 34021 ft | 446 kts | 342° |
| 2026-05-05 12:29 | 48.26106 | 21.43416 | 34007 ft | 446 kts | 343° |
| 2026-05-05 12:29 | 48.32099 | 21.41011 | 34006 ft | 446 kts | 342° |
| 2026-05-05 12:30 | 48.38088 | 21.38590 | 34017 ft | 445 kts | 343° |
| 2026-05-05 12:30 | 48.44077 | 21.36165 | 34001 ft | 445 kts | 343° |
| 2026-05-05 12:31 | 48.50014 | 21.33745 | 34005 ft | 445 kts | 343° |
| 2026-05-05 12:31 | 48.55996 | 21.31313 | 33998 ft | 445 kts | 343° |
| 2026-05-05 12:32 | 48.61971 | 21.28886 | 34000 ft | 445 kts | 342° |
| 2026-05-05 12:32 | 48.67928 | 21.26451 | 34314 ft | 442 kts | 342° |
| 2026-05-05 12:33 | 48.70899 | 21.25232 | 34082 ft | 439 kts | 342° |
| 2026-05-05 12:33 | 48.73840 | 21.24036 | 34094 ft | 440 kts | 342° |
| 2026-05-05 12:33 | 48.76806 | 21.22817 | 33938 ft | 442 kts | 342° |
| 2026-05-05 12:33 | 48.79777 | 21.21593 | 33978 ft | 444 kts | 342° |
| 2026-05-05 12:34 | 48.85754 | 21.19114 | 33974 ft | 445 kts | 342° |
| 2026-05-05 12:34 | 48.91728 | 21.16634 | 33970 ft | 445 kts | 342° |
| 2026-05-05 12:35 | 48.97686 | 21.14165 | 33971 ft | 445 kts | 342° |
| 2026-05-05 12:35 | 49.03691 | 21.11870 | 33978 ft | 445 kts | 344° |
| 2026-05-05 12:36 | 49.09736 | 21.09737 | 33982 ft | 446 kts | 344° |
| 2026-05-05 12:36 | 49.15791 | 21.07595 | 33979 ft | 447 kts | 344° |
| 2026-05-05 12:37 | 49.27634 | 21.03234 | 33978 ft | 447 kts | 343° |
| 2026-05-05 12:38 | 49.33668 | 21.00944 | 33975 ft | 445 kts | 340° |
| 2026-05-05 12:38 | 49.39491 | 20.97730 | 33976 ft | 444 kts | 337° |
| 2026-05-05 12:39 | 49.45286 | 20.94434 | 33980 ft | 444 kts | 336° |
| 2026-05-05 12:39 | 49.51079 | 20.91120 | 33973 ft | 444 kts | 337° |
| 2026-05-05 12:40 | 49.56838 | 20.87823 | 33961 ft | 444 kts | 336° |
| 2026-05-05 12:40 | 49.62640 | 20.84523 | 33950 ft | 444 kts | 336° |
| 2026-05-05 12:41 | 49.68434 | 20.81201 | 33959 ft | 444 kts | 336° |
| 2026-05-05 12:41 | 49.74239 | 20.77860 | 33940 ft | 445 kts | 336° |
| 2026-05-05 12:42 | 49.80054 | 20.74510 | 33921 ft | 447 kts | 336° |
| 2026-05-05 12:42 | 49.85798 | 20.71180 | 33891 ft | 449 kts | 336° |
| 2026-05-05 12:43 | 49.91674 | 20.67784 | 33895 ft | 451 kts | 336° |
| 2026-05-05 12:43 | 49.97551 | 20.64371 | 33917 ft | 451 kts | 336° |
| 2026-05-05 12:44 | 50.03431 | 20.60946 | 33923 ft | 450 kts | 336° |
| 2026-05-05 12:44 | 50.09391 | 20.57931 | 33920 ft | 453 kts | 346° |
| 2026-05-05 12:45 | 50.15712 | 20.57508 | 33925 ft | 459 kts | 1° |
| 2026-05-05 12:45 | 50.22094 | 20.58186 | 33928 ft | 459 kts | 0° |
| 2026-05-05 12:46 | 50.28442 | 20.58854 | 33922 ft | 459 kts | 0° |
| 2026-05-05 12:46 | 50.34820 | 20.59515 | 33920 ft | 459 kts | 0° |
| 2026-05-05 12:47 | 50.37999 | 20.59842 | 33659 ft | 459 kts | 0° |
| 2026-05-05 12:47 | 50.41183 | 20.60167 | 33162 ft | 458 kts | 0° |
| 2026-05-05 12:47 | 50.44366 | 20.60494 | 32684 ft | 458 kts | 0° |
| 2026-05-05 12:47 | 50.47549 | 20.60823 | 32207 ft | 459 kts | 0° |
| 2026-05-05 12:48 | 50.50739 | 20.61154 | 31738 ft | 460 kts | 0° |
| 2026-05-05 12:48 | 50.53939 | 20.61485 | 31274 ft | 461 kts | 0° |
| 2026-05-05 12:48 | 50.57149 | 20.61815 | 30821 ft | 463 kts | 0° |
| 2026-05-05 12:48 | 50.60364 | 20.62146 | 30375 ft | 464 kts | 0° |
| 2026-05-05 12:49 | 50.63589 | 20.62484 | 29939 ft | 465 kts | 1° |
| 2026-05-05 12:49 | 50.66821 | 20.62826 | 29426 ft | 467 kts | 1° |
| 2026-05-05 12:49 | 50.70014 | 20.63167 | 28943 ft | 469 kts | 1° |
| 2026-05-05 12:49 | 50.73314 | 20.63521 | 28429 ft | 470 kts | 1° |
| 2026-05-05 12:50 | 50.76542 | 20.63865 | 27952 ft | 472 kts | 1° |
| 2026-05-05 12:50 | 50.79809 | 20.64209 | 27475 ft | 473 kts | 1° |
| 2026-05-05 12:50 | 50.83083 | 20.64551 | 27007 ft | 475 kts | 1° |
| 2026-05-05 12:50 | 50.86384 | 20.64898 | 26538 ft | 477 kts | 1° |
| 2026-05-05 12:51 | 50.89689 | 20.65246 | 25938 ft | 475 kts | 1° |
| 2026-05-05 12:51 | 50.92986 | 20.65590 | 25346 ft | 473 kts | 1° |
| 2026-05-05 12:51 | 50.96259 | 20.65931 | 24767 ft | 470 kts | 1° |
| 2026-05-05 12:51 | 50.99494 | 20.66272 | 24198 ft | 465 kts | 1° |
| 2026-05-05 12:52 | 51.02699 | 20.66619 | 23635 ft | 457 kts | 1° |
| 2026-05-05 12:52 | 51.05832 | 20.66961 | 23015 ft | 444 kts | 1° |
| 2026-05-05 12:52 | 51.08863 | 20.67292 | 22378 ft | 432 kts | 1° |
| 2026-05-05 12:52 | 51.11844 | 20.67613 | 21576 ft | 425 kts | 1° |
| 2026-05-05 12:53 | 51.14788 | 20.67926 | 20841 ft | 424 kts | 1° |
| 2026-05-05 12:53 | 51.17724 | 20.68237 | 20238 ft | 421 kts | 1° |
| 2026-05-05 12:53 | 51.20643 | 20.68550 | 19607 ft | 420 kts | 1° |
| 2026-05-05 12:53 | 51.23543 | 20.68861 | 19074 ft | 416 kts | 1° |
| 2026-05-05 12:54 | 51.29266 | 20.69884 | 18127 ft | 414 kts | 12° |
| 2026-05-05 12:54 | 51.32012 | 20.71285 | 17588 ft | 413 kts | 17° |
| 2026-05-05 12:54 | 51.34730 | 20.72748 | 17116 ft | 411 kts | 17° |
| 2026-05-05 12:55 | 51.37398 | 20.74181 | 16654 ft | 408 kts | 16° |
| 2026-05-05 12:55 | 51.40124 | 20.75639 | 16188 ft | 406 kts | 16° |
| 2026-05-05 12:55 | 51.42792 | 20.77065 | 15739 ft | 403 kts | 16° |
| 2026-05-05 12:55 | 51.45440 | 20.78483 | 15285 ft | 400 kts | 16° |
| 2026-05-05 12:56 | 51.48069 | 20.79895 | 14841 ft | 398 kts | 16° |
| 2026-05-05 12:56 | 51.50685 | 20.81302 | 14403 ft | 395 kts | 16° |
| 2026-05-05 12:56 | 51.53251 | 20.82681 | 13977 ft | 392 kts | 15° |
| 2026-05-05 12:56 | 51.55826 | 20.84065 | 13487 ft | 389 kts | 15° |
| 2026-05-05 12:57 | 51.58387 | 20.85445 | 12958 ft | 386 kts | 15° |
| 2026-05-05 12:57 | 51.60930 | 20.86823 | 12440 ft | 384 kts | 15° |
| 2026-05-05 12:57 | 51.63453 | 20.88194 | 11928 ft | 381 kts | 15° |
| 2026-05-05 12:57 | 51.65962 | 20.89554 | 11426 ft | 379 kts | 15° |
| 2026-05-05 12:58 | 51.68452 | 20.90902 | 10928 ft | 376 kts | 15° |
| 2026-05-05 12:58 | 51.70927 | 20.92231 | 10442 ft | 374 kts | 15° |
| 2026-05-05 12:58 | 51.73397 | 20.93532 | 9978 ft | 372 kts | 15° |
| 2026-05-05 12:58 | 51.75814 | 20.94796 | 9728 ft | 359 kts | 15° |
| 2026-05-05 12:59 | 51.78187 | 20.95744 | 9467 ft | 344 kts | 3° |
| 2026-05-05 12:59 | 51.80527 | 20.95966 | 9205 ft | 331 kts | 358° |
| 2026-05-05 12:59 | 51.82800 | 20.96117 | 8944 ft | 322 kts | 359° |
| 2026-05-05 13:00 | 51.87168 | 20.96429 | 8434 ft | 307 kts | 359° |
| 2026-05-05 13:00 | 51.89283 | 20.96583 | 8181 ft | 301 kts | 359° |
| 2026-05-05 13:01 | 51.95485 | 20.97024 | 7153 ft | 295 kts | 0° |
| 2026-05-05 13:01 | 51.97529 | 20.97169 | 6787 ft | 294 kts | 1° |
| 2026-05-05 13:01 | 51.99572 | 20.97317 | 6403 ft | 293 kts | 1° |
| 2026-05-05 13:01 | 52.01607 | 20.97466 | 6071 ft | 292 kts | 1° |
| 2026-05-05 13:02 | 52.03620 | 20.97529 | 5726 ft | 288 kts | 353° |
| 2026-05-05 13:02 | 52.05546 | 20.96771 | 5387 ft | 284 kts | 334° |
| 2026-05-05 13:02 | 52.07211 | 20.95110 | 5076 ft | 279 kts | 315° |
| 2026-05-05 13:02 | 52.08458 | 20.92768 | 4994 ft | 274 kts | 298° |
| 2026-05-05 13:03 | 52.09301 | 20.89994 | 5010 ft | 275 kts | 291° |
| 2026-05-05 13:03 | 52.10092 | 20.87159 | 5009 ft | 276 kts | 291° |
| 2026-05-05 13:03 | 52.10877 | 20.84360 | 5010 ft | 276 kts | 291° |
| 2026-05-05 13:03 | 52.11675 | 20.81518 | 5003 ft | 276 kts | 291° |
| 2026-05-05 13:04 | 52.12466 | 20.78690 | 5008 ft | 274 kts | 291° |
| 2026-05-05 13:04 | 52.13256 | 20.75870 | 5008 ft | 274 kts | 291° |
| 2026-05-05 13:04 | 52.14040 | 20.73062 | 4991 ft | 269 kts | 291° |
| 2026-05-05 13:04 | 52.14791 | 20.70377 | 4987 ft | 254 kts | 291° |
| 2026-05-05 13:05 | 52.15500 | 20.67835 | 5006 ft | 241 kts | 290° |
| 2026-05-05 13:05 | 52.16192 | 20.65344 | 5004 ft | 242 kts | 291° |
| 2026-05-05 13:05 | 52.16884 | 20.62845 | 4988 ft | 242 kts | 291° |
| 2026-05-05 13:05 | 52.17575 | 20.60345 | 5002 ft | 242 kts | 290° |
| 2026-05-05 13:06 | 52.18267 | 20.57847 | 4992 ft | 242 kts | 290° |
| 2026-05-05 13:06 | 52.18959 | 20.55350 | 5002 ft | 241 kts | 290° |
| 2026-05-05 13:06 | 52.19646 | 20.52864 | 4997 ft | 241 kts | 290° |
| 2026-05-05 13:06 | 52.20334 | 20.50375 | 4992 ft | 241 kts | 290° |
| 2026-05-05 13:07 | 52.21019 | 20.47890 | 4997 ft | 242 kts | 290° |
| 2026-05-05 13:07 | 52.21706 | 20.45385 | 4990 ft | 243 kts | 290° |
| 2026-05-05 13:07 | 52.22439 | 20.42888 | 4988 ft | 246 kts | 300° |
| 2026-05-05 13:07 | 52.23744 | 20.41084 | 4992 ft | 254 kts | 336° |
| 2026-05-05 13:08 | 52.25494 | 20.40828 | 4993 ft | 258 kts | 14° |
| 2026-05-05 13:08 | 52.27173 | 20.41885 | 5002 ft | 260 kts | 24° |
| 2026-05-05 13:08 | 52.28774 | 20.43262 | 4985 ft | 260 kts | 43° |
| 2026-05-05 13:08 | 52.29783 | 20.45618 | 4990 ft | 253 kts | 76° |
| 2026-05-05 13:09 | 52.29941 | 20.48105 | 4889 ft | 244 kts | 104° |
| 2026-05-05 13:09 | 52.29373 | 20.50660 | 4471 ft | 239 kts | 118° |
| 2026-05-05 13:09 | 52.28680 | 20.53135 | 4112 ft | 240 kts | 117° |
| 2026-05-05 13:09 | 52.27995 | 20.55611 | 3800 ft | 238 kts | 117° |
| 2026-05-05 13:10 | 52.27322 | 20.58056 | 3538 ft | 232 kts | 116° |
| 2026-05-05 13:10 | 52.26679 | 20.60390 | 3482 ft | 217 kts | 116° |
| 2026-05-05 13:10 | 52.26068 | 20.62606 | 3515 ft | 213 kts | 116° |
| 2026-05-05 13:10 | 52.25455 | 20.64819 | 3509 ft | 214 kts | 117° |
| 2026-05-05 13:11 | 52.24845 | 20.67023 | 3511 ft | 213 kts | 116° |
| 2026-05-05 13:11 | 52.24234 | 20.69230 | 3496 ft | 214 kts | 117° |
| 2026-05-05 13:11 | 52.23618 | 20.71451 | 3336 ft | 214 kts | 117° |
| 2026-05-05 13:11 | 52.23026 | 20.73589 | 3086 ft | 205 kts | 118° |
| 2026-05-05 13:12 | 52.22451 | 20.75661 | 2833 ft | 197 kts | 117° |
| 2026-05-05 13:12 | 52.21894 | 20.77664 | 2582 ft | 191 kts | 117° |
| 2026-05-05 13:12 | 52.21350 | 20.79616 | 2334 ft | 186 kts | 117° |
| 2026-05-05 13:12 | 52.20823 | 20.81512 | 2095 ft | 181 kts | 117° |
| 2026-05-05 13:13 | 52.20314 | 20.83338 | 1863 ft | 171 kts | 118° |
| 2026-05-05 13:13 | 52.19836 | 20.85055 | 1669 ft | 162 kts | 118° |
| 2026-05-05 13:13 | 52.19380 | 20.86686 | 1439 ft | 156 kts | 118° |
| 2026-05-05 13:13 | 52.18930 | 20.88296 | 1245 ft | 156 kts | 117° |
| 2026-05-05 13:14 | 52.18485 | 20.89888 | 1041 ft | 153 kts | 118° |
| 2026-05-05 13:14 | 52.18044 | 20.91466 | 838 ft | 153 kts | 117° |
| 2026-05-05 13:14 | 52.17603 | 20.93040 | 604 ft | 154 kts | 118° |
| 2026-05-05 13:14 | 52.17165 | 20.94621 | 414 ft | 153 kts | 118° |
| 2026-05-05 13:15 | 52.16728 | 20.96153 | 357 ft | 138 kts | 116° |
| 2026-05-05 13:15 | 52.16511 | 20.96926 | 348 ft | 36 kts | 110° |
| 2026-05-05 13:15 | 52.16524 | 20.97126 | 351 ft | 8 kts | 11° |
| 2026-05-05 13:15 | 52.16571 | 20.97110 | 351 ft | 6 kts | 345° |
| 2026-05-05 13:16 | 52.16614 | 20.97091 | 355 ft | 6 kts | 344° |
| 2026-05-05 13:16 | 52.16659 | 20.97077 | 357 ft | 7 kts | 359° |
| 2026-05-05 13:16 | 52.16700 | 20.97126 | 353 ft | 8 kts | 46° |
| 2026-05-05 13:16 | 52.16756 | 20.97170 | 358 ft | 10 kts | 357° |
| 2026-05-05 13:17 | 52.16826 | 20.97124 | 355 ft | 12 kts | 333° |
| 2026-05-05 13:17 | 52.16908 | 20.97055 | 354 ft | 11 kts | 332° |
| 2026-05-05 13:17 | 52.16980 | 20.96993 | 352 ft | 13 kts | 332° |
| 2026-05-05 13:17 | 52.17012 | 20.96980 | 352 ft | 5 kts | 6° |
| 2026-05-05 13:18 | 52.17030 | 20.97024 | 355 ft | 6 kts | 70° |
| 2026-05-05 13:18 | 52.17040 | 20.97074 | 357 ft | 2 kts | 69° |
| 2026-05-05 13:18 | 52.17044 | 20.97092 | 353 ft | 1 kts | 69° |
| 2026-05-05 13:18 | 52.17046 | 20.97100 | 352 ft | 0 kts | 69° |